首页
METAR-TAF:

METAR-TAF

机场 :

Childress, 得克萨斯州, 美国

纬度: 34-25-39N, 经度: 100-17-00W, 海拔: 595米

当前天气观测

该预报发布于22分钟前的10:14 UTC
风速15节,风向东南
温度 19°C
湿度 83%
气压 1014 hPa
能見度: 16.1公里
阴天层高于11000英尺
雷暴

METAR: KCDS 301014Z AUTO 14015KT 10SM TS OVC110 19/16 A2993 RMK AO2 LTG DSNT ALQDS RAE14 TSB08 P0001 T01890161

时间: 05:36 (10:36 UTC)

预报

该预报发布于24分钟前的10:12 UTC
预报有效从30日的 10点(UTC)到 31日的 06点(UTC)
风速9节,风向东南
能見度: 9.7公里
散云层高于6000英尺
多云层高于25000英尺
小雨
从 30日的 1100点(UTC)
风速11节,风向南转南东
能見度: 10公里
多云层高于4000英尺
从 30日的 1700点(UTC)
风速15节,风向东南
能見度: 10公里
散云层高于5000英尺
多云层高于10000英尺
几率 30%
从 31日的 00点(UTC)到 31日的 04点(UTC)
能見度: 6.4公里
多云层高于6000英尺, 积雨云.
雷暴, 小雨,

TAF: KCDS 301012Z 3010/3106 14009KT 6SM -RA SCT060 BKN250 FM301100 15011KT P6SM BKN040 FM301700 14015KT P6SM SCT050 BKN100 PROB30 3100/3104 4SM -TSRA BKN060CB

超过4000个机场的气象观测和天气预报(METAR&TAF报告)。

可查询的气象台以黄色和红色小点在地图上表示。

将鼠标移到小点上方,可查看气象台名称。

然后点击查看天气观测和预报。

如需切换地图:点击带黑十字的绿色按钮放大地图;点击带横线的绿色按钮缩小地图;或者点击绿色箭头查看邻近地区的地图。


METAR-TAF: